Bookmark and Share
Track history (hours):
 

Laguepe

Last reported at 2014-Apr-23 12:31 UTC. Time now 2014-Apr-23 18:59 UTC.
Position N 43°23' E 004°49'.

Length 81 m; draft 2.8 m.

Type: Cargo ship. MMSI: 256681000.

NotesDate/timePositionNaut miles runAvg speedWind from/ knotsBaromVisibWave heightAir tempDewpointWater temp
2014-Apr-23 12:31N 43°23' E 004°49'3 3.5
2014-Apr-23 11:33N 43°24' E 004°53'5 4.8
2014-Apr-23 10:33N 43°21' E 004°59'9 8.8
2014-Apr-23 09:33N 43°13' E 005°02'8 8.1
2014-Apr-23 08:31N 43°06' E 004°55'9 9.1
2014-Apr-23 07:31N 42°59' E 004°47'9 8.7
2014-Apr-23 06:29N 42°53' E 004°38'9 8.5
2014-Apr-23 05:27N 42°46' E 004°30'7 7.9
2014-Apr-23 04:33N 42°41' E 004°24'8 7.8
2014-Apr-23 03:34N 42°36' E 004°16'9 8.7
2014-Apr-23 02:32N 42°29' E 004°08'8 8.7
2014-Apr-23 01:33N 42°23' E 004°00'8 8.2
2014-Apr-23 00:33N 42°17' E 003°53'9 8.9
2014-Apr-22 23:33N 42°10' E 003°44'8 8.3
2014-Apr-22 22:32N 42°04' E 003°36'9 9.0
2014-Apr-22 21:33N 41°58' E 003°28'9 9.0
2014-Apr-22 20:33N 41°51' E 003°20'9 8.6
2014-Apr-22 19:31N 41°46' E 003°10'8 8.5
2014-Apr-22 18:33N 41°41' E 003°01'9 8.9
2014-Apr-22 17:32N 41°36' E 002°51'9 8.7
2014-Apr-22 16:33N 41°32' E 002°41'9 8.2
2014-Apr-22 15:30N 41°27' E 002°32'11 9.0
2014-Apr-22 14:20N 41°21' E 002°20'  
2014-Apr-19 15:32N 41°20' E 002°20'8 8.3
2014-Apr-19 14:33N 41°24' E 002°30'8 8.5
2014-Apr-19 13:33N 41°27' E 002°40'9 8.5
2014-Apr-19 12:33N 41°30' E 002°51'9 8.6
2014-Apr-19 11:33N 41°33' E 003°02'9 8.7
2014-Apr-19 10:33N 41°37' E 003°12'9 9.2
2014-Apr-19 09:33N 41°43' E 003°21'9 9.3
2014-Apr-19 08:33N 41°51' E 003°28'9 9.3
2014-Apr-19 07:33N 41°59' E 003°33'9 9.3
2014-Apr-19 06:33N 42°08' E 003°38'9 9.3
2014-Apr-19 05:33N 42°15' E 003°46'10 9.7
2014-Apr-19 04:33N 42°23' E 003°54'9 9.1
2014-Apr-19 03:33N 42°30' E 004°01'10 9.9
2014-Apr-19 02:33N 42°38' E 004°10'9 9.3
2014-Apr-19 01:33N 42°45' E 004°17'9 9.4
2014-Apr-19 00:33N 42°52' E 004°26'9 8.9
2014-Apr-18 23:33N 42°59' E 004°33'9 8.6
2014-Apr-18 22:33N 43°06' E 004°40'9 9.3
2014-Apr-18 21:33N 43°13' E 004°48'9 9.1
2014-Apr-18 20:33N 43°21' E 004°56'6 5.5
2014-Apr-18 19:33N 43°23' E 004°49'2 2.2
2014-Apr-18 18:33N 43°24' E 004°46'  
2014-Apr-15 17:29N 43°23' E 004°48'2 2.2
2014-Apr-15 16:33N 43°23' E 004°51'6 6.2
2014-Apr-15 15:33N 43°21' E 004°59'6 5.6
2014-Apr-15 14:33N 43°15' E 005°01'5 2.5
2014-Apr-15 12:32N 43°11' E 004°59'7 6.7
2014-Apr-15 11:33N 43°08' E 004°51'7 7.4
2014-Apr-15 10:34N 43°02' E 004°45'6 5.8
2014-Apr-15 09:33N 42°57' E 004°41'5 4.7
2014-Apr-15 08:34N 42°53' E 004°37'8 4.0
2014-Apr-15 06:33N 42°47' E 004°29'30 5.1
2014-Apr-15 00:33N 42°24' E 004°02'8 7.7
2014-Apr-14 23:34N 42°19' E 003°55'8 8.3
2014-Apr-14 22:33N 42°12' E 003°48'8 4.1
2014-Apr-14 20:34N 42°06' E 003°40'8 8.3
2014-Apr-14 19:33N 42°00' E 003°32'9 8.9
2014-Apr-14 18:32N 41°54' E 003°24'18 9.1
2014-Apr-14 16:32N 41°43' E 003°04'9 9.0
2014-Apr-14 15:30N 41°38' E 002°54'9 9.3
2014-Apr-14 14:33N 41°33' E 002°44'9 9.1
2014-Apr-14 13:33N 41°28' E 002°34'  

Dump ship's entire track history

sailing weather and tide predictions

Laguepe — 9HAI9 — position and weather